Time;durP1;ratioP1;P1;durP2;ratioP2;P2;SDS_P1;SDS_P2;PMS_P1;PMS_P2;Temp;Humidity;BMP_temperature;BMP_pressure;BME280_temperature;BME280_humidity;BME280_pressure;Samples;Min_cycle;Max_cycle;Signal;HPM_P1;HPM_P2
2021/09/14 00:01:12;;;;;;;;;71.50;56.75;;;;;19.08;64.96;100941.59;4868498;29;12074;-76
2021/09/14 00:04:08;;;;;;;;;64.50;51.50;;;;;19.06;65.05;100941.16;4867467;29;11358;-75
2021/09/14 00:07:04;;;;;;;;;62.75;52.00;;;;;18.46;66.18;100936.34;4862967;29;12100;-75
2021/09/14 00:10:00;;;;;;;;;65.50;50.00;;;;;17.92;68.44;100957.13;4866664;29;11076;-75
2021/09/14 00:12:55;;;;;;;;;68.00;53.00;;;;;17.22;71.38;100963.03;4868631;29;11104;-75
2021/09/14 00:15:51;;;;;;;;;73.25;56.25;;;;;17.98;72.22;100952.84;4867067;29;11410;-75
2021/09/14 00:18:47;;;;;;;;;76.00;58.25;;;;;17.99;69.35;100950.84;4869487;29;12351;-75
2021/09/14 00:21:43;;;;;;;;;68.25;55.25;;;;;18.32;69.45;100948.16;4869778;29;11335;-75
2021/09/14 00:24:38;;;;;;;;;72.00;55.00;;;;;18.54;67.77;100949.28;4865698;29;11662;-75
2021/09/14 00:27:34;;;;;;;;;71.00;56.50;;;;;18.37;67.67;100949.84;4860319;29;11678;-75
2021/09/14 00:30:30;;;;;;;;;72.50;58.50;;;;;18.26;67.98;100960.06;4858449;29;11378;-75
2021/09/14 00:33:25;;;;;;;;;75.50;59.00;;;;;18.36;67.90;100953.81;4870578;29;11331;-75
2021/09/14 00:36:21;;;;;;;;;77.25;61.00;;;;;18.32;67.52;100944.56;4860132;29;11714;-75
2021/09/14 00:39:17;;;;;;;;;83.00;68.25;;;;;18.56;66.82;100940.53;4859461;29;11683;-76
2021/09/14 00:42:12;;;;;;;;;81.25;67.25;;;;;18.89;66.73;100943.38;4859639;29;11684;-75
2021/09/14 00:45:08;;;;;;;;;80.00;64.75;;;;;18.69;66.25;100938.28;4858882;29;11674;-75
2021/09/14 00:48:04;;;;;;;;;71.00;57.50;;;;;19.07;66.87;100940.78;4859837;29;11821;-75
2021/09/14 00:51:00;;;;;;;;;82.00;71.50;;;;;19.01;65.63;100938.69;4859684;29;12504;-75
2021/09/14 00:53:56;;;;;;;;;71.00;60.50;;;;;18.81;65.75;100940.88;4873120;29;11682;-75
2021/09/14 00:56:51;;;;;;;;;119.50;102.00;;;;;18.42;66.27;100941.13;4862994;29;11754;-75
2021/09/14 00:59:47;;;;;;;;;146.75;118.00;;;;;17.96;68.29;100955.22;4873405;29;11784;-75
2021/09/14 01:02:42;;;;;;;;;120.25;106.75;;;;;17.76;69.52;100959.25;4844497;29;11853;-75
2021/09/14 01:05:38;;;;;;;;;135.00;112.25;;;;;18.23;68.72;100946.81;4844748;29;12548;-75
2021/09/14 01:08:36;;;;;;;;;144.25;121.00;;;;;18.08;68.80;100956.19;4844468;29;11775;-75
2021/09/14 01:11:32;;;;;;;;;117.50;102.00;;;;;18.50;69.95;100954.03;4862952;29;11778;-76
2021/09/14 01:14:28;;;;;;;;;129.75;109.00;;;;;19.23;66.41;100942.56;4858042;29;11798;-75
2021/09/14 01:17:27;;;;;;;;;147.25;124.75;;;;;18.47;67.23;100954.78;4848131;29;12569;-75
2021/09/14 01:20:23;;;;;;;;;130.75;99.75;;;;;18.85;67.16;100939.72;4844143;29;11789;-75
2021/09/14 01:23:18;;;;;;;;;119.75;98.25;;;;;18.28;67.66;100943.72;4858467;29;11796;-75
2021/09/14 01:26:14;;;;;;;;;113.25;100.75;;;;;18.58;69.70;100944.53;4872918;29;11776;-76
2021/09/14 01:30:10;;;;;;;;;121.25;105.75;;;;;18.35;67.38;100949.41;4863243;29;11917;-74
2021/09/14 01:32:27;;;;;;;;;106.00;88.50;;;;;18.06;68.70;100956.56;4862282;29;12551;-75
2021/09/14 01:35:29;;;;;;;;;108.75;93.50;;;;;18.51;69.89;100952.03;4862064;29;11812;-75
2021/09/14 01:38:24;;;;;;;;;90.00;81.75;;;;;18.44;67.40;100960.34;4843340;29;11738;-75
2021/09/14 01:41:20;;;;;;;;;89.75;79.25;;;;;18.15;68.18;100965.50;4861029;29;11725;-75
2021/09/14 01:44:15;;;;;;;;;94.50;80.75;;;;;18.25;69.24;100969.66;4862219;29;11837;-75
2021/09/14 01:47:11;;;;;;;;;103.25;84.00;;;;;18.68;68.24;100967.50;4862229;29;12750;-75
2021/09/14 01:50:08;;;;;;;;;90.25;75.50;;;;;18.41;67.46;100970.31;4860826;29;11758;-75
2021/09/14 01:53:04;;;;;;;;;75.25;50.75;;;;;17.89;68.75;100971.88;4862215;29;11751;-75
2021/09/14 01:56:04;;;;;;;;;151.50;120.50;;;;;18.41;69.04;100975.91;4861912;29;11870;-75
2021/09/14 01:59:00;;;;;;;;;226.33;183.33;;;;;18.25;68.13;100969.66;4862019;29;11832;-75
2021/09/14 02:02:06;;;;;;;;;256.50;206.25;;;;;17.83;69.40;100964.16;4861840;29;8869;-75
2021/09/14 02:05:10;;;;;;;;;291.00;239.25;;;;;17.90;69.88;100962.28;4871507;29;8887;-75
2021/09/14 02:40:22;;;;;;;;;175.50;129.75;;;;;18.22;69.21;100970.41;4861178;29;8869;-75
2021/09/14 02:58:37;;;;;;;;;241.00;183.25;;;;;18.14;68.30;100977.06;4861142;29;8869;-75
2021/09/14 02:59:36;;;;;;;;;205.25;177.00;;;;;17.85;69.65;100984.97;4861272;29;8869;-75
2021/09/14 03:02:32;;;;;;;;;237.75;197.75;;;;;17.55;70.91;100976.41;4854733;29;8944;-75
2021/09/14 03:05:28;;;;;;;;;191.00;159.00;;;;;17.57;70.97;100988.06;4854413;29;8861;-75
2021/09/14 03:08:24;;;;;;;;;169.33;134.00;;;;;17.61;70.94;100983.31;4861283;29;8857;-75
2021/09/14 03:11:20;;;;;;;;;175.33;148.67;;;;;17.50;71.21;100980.34;4860945;29;8909;-75
2021/09/14 03:14:16;;;;;;;;;174.67;144.67;;;;;17.51;70.76;100987.56;4860857;29;8884;-76
2021/09/14 03:17:11;;;;;;;;;145.33;109.33;;;;;17.24;71.66;100997.78;4859394;29;9081;-74
2021/09/14 03:20:07;;;;;;;;;151.67;129.33;;;;;17.24;71.79;100997.78;4861138;29;8868;-75
2021/09/14 03:23:03;;;;;;;;;189.00;154.00;;;;;17.18;72.17;100992.91;4861416;29;9008;-75
2021/09/14 03:25:59;;;;;;;;;195.00;157.00;;;;;17.16;72.23;100990.44;4860550;29;8907;-75
2021/09/14 03:28:54;;;;;;;;;215.75;178.00;;;;;17.24;72.23;101000.59;4860171;29;8868;-74
2021/09/14 03:31:50;;;;;;;;;286.00;227.00;;;;;17.17;72.57;100996.84;4866831;29;8865;-75
2021/09/14 03:34:46;;;;;;;;;290.50;242.00;;;;;17.21;72.00;101011.72;4889264;29;8940;-75
2021/09/14 03:37:42;;;;;;;;;276.25;224.00;;;;;17.08;72.34;101002.66;4878916;29;8937;-74
2021/09/14 03:40:42;;;;;;;;;264.50;217.00;;;;;16.95;72.53;101006.78;4879039;29;8993;-75
2021/09/14 03:43:38;;;;;;;;;163.50;121.25;;;;;17.09;72.99;101001.47;4879222;29;9610;-75
2021/09/14 03:46:34;;;;;;;;;277.25;216.25;;;;;17.32;72.29;101001.53;4889077;29;8855;-75
2021/09/14 03:49:29;;;;;;;;;244.00;208.00;;;;;17.34;71.91;101010.38;4879089;29;8890;-75
2021/09/14 03:52:25;;;;;;;;;257.75;204.50;;;;;17.15;72.08;101016.78;4878687;29;8930;-75
2021/09/14 03:55:20;;;;;;;;;235.50;195.00;;;;;17.66;71.52;101018.59;4877644;29;8977;-75
2021/09/14 03:58:16;;;;;;;;;218.75;178.50;;;;;17.69;71.53;101015.03;4878868;29;8914;-77
2021/09/14 04:01:12;;;;;;;;;201.75;170.75;;;;;17.68;71.05;101019.00;4858693;29;8954;-77
2021/09/14 04:05:02;;;;;;;;;118.00;94.00;;;;;17.81;70.93;101026.09;4852017;29;8882;-77
2021/09/14 04:10:35;;;;;;;;;135.75;106.50;;;;;17.55;71.96;101021.16;4869639;29;8873;-77
2021/09/14 04:13:31;;;;;;;;;103.00;90.50;;;;;17.46;71.96;101028.97;4871682;29;11778;-77
2021/09/14 04:16:26;;;;;;;;;107.00;92.75;;;;;17.53;72.28;101031.91;4859420;29;11770;-77
2021/09/14 04:19:22;;;;;;;;;82.75;73.75;;;;;17.77;71.83;101030.81;4859065;29;11868;-77
2021/09/14 04:22:18;;;;;;;;;81.00;70.50;;;;;17.81;71.82;101028.88;4857798;29;12483;-77
2021/09/14 04:25:13;;;;;;;;;80.00;64.00;;;;;17.72;72.21;101036.72;4859924;29;11752;-77
2021/09/14 04:28:09;;;;;;;;;68.00;53.00;;;;;17.75;72.46;101033.16;4864272;29;12500;-77
2021/09/14 04:31:04;;;;;;;;;79.25;65.75;;;;;17.85;72.24;101034.53;4877679;29;11712;-77
2021/09/14 04:34:00;;;;;;;;;89.00;78.75;;;;;18.00;72.07;101037.22;4844903;29;12515;-78
2021/09/14 04:36:55;;;;;;;;;86.00;75.00;;;;;18.10;71.59;101040.59;4843515;29;11760;-78
2021/09/14 04:39:52;;;;;;;;;113.50;86.75;;;;;18.20;71.31;101045.56;4861157;29;11741;-77
2021/09/14 04:42:48;;;;;;;;;126.00;113.75;;;;;19.91;66.75;101037.47;4873108;29;11736;-78
2021/09/14 04:45:43;;;;;;;;;99.75;88.00;;;;;20.94;62.34;101047.94;4871780;29;11787;-77
2021/09/14 04:48:42;;;;;;;;;101.00;88.75;;;;;21.48;60.05;101054.66;4874317;29;11886;-77
2021/09/14 04:51:37;;;;;;;;;79.25;65.00;;;;;21.17;60.50;101044.84;4869975;29;11888;-84
2021/09/14 04:54:37;;;;;;;;;97.50;80.75;;;;;20.22;63.95;101043.78;4870329;29;11882;-81
2021/09/14 04:57:33;;;;;;;;;92.00;81.00;;;;;19.78;65.28;101040.94;4866195;29;11709;-80
2021/09/14 05:00:28;;;;;;;;;78.50;61.25;;;;;19.53;67.78;101032.22;4845972;29;11727;-80
2021/09/14 05:03:24;;;;;;;;;92.00;79.25;;;;;19.42;66.77;101041.34;4866284;29;11711;-81
2021/09/14 05:06:19;;;;;;;;;112.75;92.50;;;;;19.31;69.15;101042.38;4855074;29;11738;-80
2021/09/14 05:09:16;;;;;;;;;83.25;74.00;;;;;19.23;69.38;101041.50;4844957;29;11723;-80
2021/09/14 05:12:11;;;;;;;;;111.00;90.00;;;;;19.35;69.40;101044.06;4871177;29;11725;-80
2021/09/14 05:15:08;;;;;;;;;118.50;100.25;;;;;19.39;70.38;101046.88;4862964;29;11760;-79
2021/09/14 05:18:10;;;;;;;;;117.75;98.50;;;;;19.49;70.74;101043.44;4862783;29;11758;-80
2021/09/14 05:21:01;;;;;;;;;112.75;97.50;;;;;19.60;70.03;101040.75;4862477;29;12479;-80
2021/09/14 05:23:49;;;;;;;;;110.75;94.25;;;;;19.64;69.77;101048.03;4872989;29;12500;-81
2021/09/14 05:26:44;;;;;;;;;130.50;116.75;;;;;19.78;69.31;101050.16;4862404;29;11758;-79
2021/09/14 05:29:40;;;;;;;;;137.75;114.00;;;;;19.93;68.68;101054.72;4854418;29;11849;-80
2021/09/14 05:32:22;;;;;;;;;131.00;115.75;;;;;20.03;69.07;101047.63;4875291;29;11738;-80
2021/09/14 05:35:18;;;;;;;;;98.00;92.00;;;;;20.06;69.71;101052.47;4843869;29;11847;-81
2021/09/14 05:38:18;;;;;;;;;102.75;94.50;;;;;20.18;69.82;101055.00;4844243;29;11753;-80
2021/09/14 05:41:13;;;;;;;;;89.50;83.25;;;;;20.37;69.85;101053.94;4862974;29;11768;-79
2021/09/14 05:44:09;;;;;;;;;112.25;95.25;;;;;20.54;69.93;101055.28;4856865;29;11741;-80
2021/09/14 05:46:57;;;;;;;;;103.50;87.75;;;;;20.61;69.94;101058.16;4859853;29;11742;-80
2021/09/14 05:49:53;;;;;;;;;98.50;88.25;;;;;20.79;69.81;101059.09;4852731;29;11870;-80
2021/09/14 05:53:05;;;;;;;;;103.25;88.75;;;;;20.94;69.66;101065.63;4848419;29;11767;-80
2021/09/14 05:55:40;;;;;;;;;84.00;77.00;;;;;20.94;69.58;101062.00;4852530;29;11752;-80
2021/09/14 05:58:35;;;;;;;;;74.75;66.00;;;;;21.22;69.78;101059.31;4856441;29;11649;-79
2021/09/14 06:01:31;;;;;;;;;75.25;67.25;;;;;21.32;70.25;101057.81;4872245;29;11266;-79
2021/09/14 06:04:26;;;;;;;;;77.75;70.00;;;;;21.42;69.36;101062.66;4859804;29;11736;-79
2021/09/14 06:07:08;;;;;;;;;78.25;67.50;;;;;21.53;69.52;101068.31;4880845;29;12002;-79
2021/09/14 06:10:09;;;;;;;;;64.00;50.75;;;;;21.74;68.79;101068.38;4870329;29;10985;-80
2021/09/14 06:13:05;;;;;;;;;63.00;50.00;;;;;21.89;69.24;101074.84;4868270;29;10723;-80
2021/09/14 06:15:33;;;;;;;;;52.00;43.67;;;;;22.06;69.61;101067.63;4867740;29;9844;-79
2021/09/14 06:18:28;;;;;;;;;61.33;49.00;;;;;22.17;68.82;101072.13;4868204;29;10327;-80
2021/09/14 06:21:24;;;;;;;;;61.33;48.67;;;;;22.40;68.28;101082.19;4878749;29;9357;-80
2021/09/14 06:24:19;;;;;;;;;63.33;50.33;;;;;22.54;67.64;101070.09;4868861;29;9441;-81
2021/09/14 06:27:16;;;;;;;;;53.00;43.00;;;;;22.62;66.54;101080.97;4880729;29;9501;-80
2021/09/14 06:29:45;;;;;;;;;46.75;39.00;;;;;22.66;66.09;101084.59;4883926;29;9778;-81
2021/09/14 06:32:40;;;;;;;;;56.50;47.25;;;;;22.96;65.75;101087.00;4866584;29;8847;-81
2021/09/14 06:35:36;;;;;;;;;45.75;38.50;;;;;22.98;66.96;101090.19;4880208;29;8862;-80
2021/09/14 06:38:32;;;;;;;;;46.50;39.00;;;;;23.08;65.23;101091.41;4868610;29;8850;-82
2021/09/14 06:41:28;;;;;;;;;33.50;32.00;;;;;23.31;64.79;101096.56;4868738;29;8859;-82
2021/09/14 06:44:23;;;;;;;;;41.00;35.00;;;;;23.45;62.71;101090.84;4850724;29;8865;-82
2021/09/14 06:46:52;;;;;;;;;42.75;36.50;;;;;23.64;63.65;101088.81;4861695;29;8873;-81
2021/09/14 06:49:47;;;;;;;;;37.25;32.75;;;;;23.84;63.10;101089.88;4857793;29;9608;-80
2021/09/14 06:52:29;;;;;;;;;33.50;31.00;;;;;23.98;59.99;101092.63;4868919;29;9070;-81
2021/09/14 06:55:25;;;;;;;;;32.25;29.00;;;;;24.05;59.05;101092.59;4886701;29;8859;-81
2021/09/14 06:58:22;;;;;;;;;30.25;30.00;;;;;24.28;58.53;101102.53;4870198;29;8858;-80
2021/09/14 07:01:19;;;;;;;;;33.00;31.50;;;;;24.49;57.10;101090.28;4860198;29;8859;-82
2021/09/14 07:04:14;;;;;;;;;28.25;27.75;;;;;24.32;55.37;101098.50;4871378;29;8869;-79
2021/09/14 07:07:10;;;;;;;;;30.00;28.25;;;;;24.67;54.68;101091.72;4870066;29;9049;-82
2021/09/14 07:10:06;;;;;;;;;25.75;25.75;;;;;24.82;54.10;101081.06;4863392;29;8987;-81
2021/09/14 07:12:53;;;;;;;;;24.75;24.75;;;;;25.06;53.65;101087.72;4861759;29;8886;-82
2021/09/14 07:15:49;;;;;;;;;27.50;27.50;;;;;25.07;52.29;101082.84;4861371;29;9296;-81
2021/09/14 07:18:46;;;;;;;;;21.50;21.50;;;;;25.38;49.95;101090.19;4869787;29;8956;-82
2021/09/14 07:21:43;;;;;;;;;25.00;25.00;;;;;25.63;51.02;101087.03;4858896;29;8880;-82
2021/09/14 07:24:39;;;;;;;;;15.20;15.20;;;;;25.72;47.14;101083.72;4860927;29;8884;-84
2021/09/14 07:27:35;;;;;;;;;24.80;24.20;;;;;25.93;48.70;101080.59;4858826;29;8895;-83
2021/09/14 07:30:31;;;;;;;;;20.20;20.20;;;;;26.00;48.00;101076.84;4856304;29;8893;-79
2021/09/14 07:33:26;;;;;;;;;17.00;17.00;;;;;26.14;46.61;101076.59;4857003;29;8869;-82
2021/09/14 07:36:22;;;;;;;;;21.40;21.20;;;;;26.04;45.67;101075.53;4860134;29;8917;-79
2021/09/14 07:39:17;;;;;;;;;29.60;24.60;;;;;26.22;47.06;101077.28;4859064;29;8933;-82
2021/09/14 07:41:47;;;;;;;;;18.60;18.00;;;;;26.38;46.18;101079.47;4873757;29;8857;-80
2021/09/14 07:44:43;;;;;;;;;16.60;16.60;;;;;26.36;45.55;101079.09;4858895;29;8869;-82
2021/09/14 07:47:38;;;;;;;;;13.20;13.20;;;;;26.40;44.38;101074.22;4860171;29;8945;-81
2021/09/14 07:50:34;;;;;;;;;14.00;14.00;;;;;26.63;42.89;101077.06;4860375;29;9061;-80
2021/09/14 07:53:30;;;;;;;;;13.80;13.20;;;;;26.83;41.77;101071.41;4863045;29;8981;-80
2021/09/14 07:56:25;;;;;;;;;16.40;15.20;;;;;27.10;43.37;101071.34;4866986;29;8893;-80
2021/09/14 07:58:54;;;;;;;;;11.80;11.60;;;;;27.07;41.66;101077.91;4861139;29;8861;-80
2021/09/14 08:01:49;;;;;;;;;11.60;11.60;;;;;27.34;41.49;101072.88;4855692;29;8885;-83
2021/09/14 08:04:18;;;;;;;;;12.00;12.00;;;;;27.53;40.88;101065.59;4874130;29;8865;-80
2021/09/14 08:06:59;;;;;;;;;15.40;14.40;;;;;27.70;40.93;101070.09;4859144;29;9674;-81
2021/09/14 08:09:55;;;;;;;;;12.20;12.20;;;;;27.58;40.06;101067.09;4860017;29;8872;-81
2021/09/14 08:12:50;;;;;;;;;15.40;14.40;;;;;27.90;40.50;101066.38;4858281;29;8857;-81
2021/09/14 08:15:34;;;;;;;;;10.00;10.00;;;;;28.20;39.45;101063.22;4859273;29;8949;-81
2021/09/14 08:18:03;;;;;;;;;12.80;12.80;;;;;28.46;39.27;101069.94;4860402;29;8888;-81
2021/09/14 08:20:59;;;;;;;;;10.60;10.60;;;;;28.59;39.00;101066.34;4863907;29;8884;-81
2021/09/14 08:23:56;;;;;;;;;13.40;12.60;;;;;28.70;38.98;101056.28;4859251;29;8911;-80
2021/09/14 08:26:52;;;;;;;;;11.80;11.80;;;;;28.50;37.04;101062.09;4861890;29;8872;-81
2021/09/14 08:29:48;;;;;;;;;10.40;10.40;;;;;28.85;37.85;101056.72;4859727;29;8861;-83
2021/09/14 08:32:43;;;;;;;;;13.60;12.00;;;;;29.03;36.16;101051.34;4862010;29;8886;-83
2021/09/14 08:35:39;;;;;;;;;7.60;7.60;;;;;29.07;33.83;101056.94;4854721;29;8952;-81
2021/09/14 08:38:34;;;;;;;;;11.80;11.80;;;;;28.83;36.17;101055.53;4866148;29;8989;-82
2021/09/14 08:41:30;;;;;;;;;12.40;11.40;;;;;28.89;35.87;101053.75;4876828;29;8906;-80
2021/09/14 08:43:59;;;;;;;;;11.80;11.80;;;;;29.22;36.08;101051.66;4860300;29;8869;-83
2021/09/14 08:46:45;;;;;;;;;13.20;13.20;;;;;29.12;35.94;101052.72;4859504;29;9606;-78
2021/09/14 08:49:42;;;;;;;;;12.60;12.40;;;;;29.36;36.00;101051.19;4869687;29;8892;-81
2021/09/14 08:52:12;;;;;;;;;12.00;12.00;;;;;29.36;37.10;101048.34;4870185;29;9437;-80
2021/09/14 08:55:08;;;;;;;;;15.00;15.00;;;;;29.53;37.01;101051.97;4865696;29;8857;-81
2021/09/14 08:58:08;;;;;;;;;13.00;13.00;;;;;29.89;38.28;101054.50;4866676;29;8966;-83
2021/09/14 09:01:14;;;;;;;;;11.80;11.80;;;;;29.75;38.48;101055.75;4871419;29;8950;-82
2021/09/14 09:04:12;;;;;;;;;8.20;8.20;;;;;29.78;37.93;101054.03;4868327;29;8866;-84
2021/09/14 09:07:07;;;;;;;;;13.60;13.60;;;;;29.66;39.15;101054.81;4865064;29;8873;-83
2021/09/14 09:10:15;;;;;;;;;12.80;12.80;;;;;30.31;38.04;101054.41;4868554;29;8842;-82
2021/09/14 09:13:11;;;;;;;;;7.00;5.80;;;;;30.34;39.48;101050.63;4877328;29;8875;-81
2021/09/14 09:16:26;;;;;;;;;16.40;14.60;;;;;29.86;40.17;101044.81;4863980;29;8956;-79
2021/09/14 09:19:26;;;;;;;;;10.80;10.80;;;;;30.03;38.77;101044.69;4865839;29;8892;-80
2021/09/14 09:22:00;;;;;;;;;12.20;11.40;;;;;29.82;39.37;101040.47;4872063;29;8894;-78
2021/09/14 09:24:56;;;;;;;;;14.00;14.00;;;;;29.88;41.03;101036.59;4871043;29;8848;-80
2021/09/14 09:27:38;;;;;;;;;12.60;12.60;;;;;30.27;39.66;101039.44;4867335;29;8879;-78
2021/09/14 09:30:09;;;;;;;;;12.00;12.00;;;;;30.38;40.16;101039.88;4872380;29;8884;-82
2021/09/14 09:33:09;;;;;;;;;12.80;12.80;;;;;30.33;38.04;101040.47;4867986;29;8869;-81
2021/09/14 09:36:08;;;;;;;;;11.40;11.40;;;;;30.32;38.24;101033.16;4869563;29;8853;-80
2021/09/14 09:39:06;;;;;;;;;11.40;11.00;;;;;30.02;39.81;101038.19;4872873;29;8867;-82
2021/09/14 09:42:05;;;;;;;;;10.40;10.40;;;;;30.77;39.81;101044.25;4862912;29;8887;-80
2021/09/14 09:45:02;;;;;;;;;13.60;13.20;;;;;30.67;39.93;101040.53;4872074;29;8859;-79
2021/09/14 09:47:58;;;;;;;;;13.20;13.20;;;;;30.97;38.38;101033.28;4843704;29;8926;-81
2021/09/14 09:50:54;;;;;;;;;17.60;13.00;;;;;30.96;37.41;101025.19;4862253;29;8890;-80
2021/09/14 09:53:23;;;;;;;;;11.00;11.00;;;;;31.33;37.62;101034.06;4861268;29;8921;-77
2021/09/14 09:56:21;;;;;;;;;9.60;9.60;;;;;31.03;36.99;101032.72;4851204;29;9008;-81
2021/09/14 09:59:18;;;;;;;;;11.80;11.80;;;;;30.34;37.47;101025.72;4861650;29;8849;-80
2021/09/14 10:02:22;;;;;;;;;13.00;13.00;;;;;30.10;38.35;101036.72;4862921;29;8900;-79
2021/09/14 10:05:21;;;;;;;;;10.40;10.40;;;;;30.74;37.26;101033.75;4857657;29;9550;-83
2021/09/14 10:08:23;;;;;;;;;14.00;13.60;;;;;30.60;36.84;101029.34;4860715;29;8869;-81
2021/09/14 10:10:59;;;;;;;;;14.40;14.40;;;;;30.81;36.81;101038.41;4871676;29;9035;-80
2021/09/14 10:14:11;;;;;;;;;13.40;13.40;;;;;31.10;37.02;101030.38;4877925;29;9693;-80
2021/09/14 10:17:06;;;;;;;;;10.60;10.60;;;;;30.82;36.49;101034.28;4870635;29;8855;-80
2021/09/14 10:20:10;;;;;;;;;11.60;11.60;;;;;30.99;37.07;101033.66;4880419;29;8897;-82
2021/09/14 10:23:22;;;;;;;;;11.00;10.00;;;;;30.40;36.78;101021.03;4851658;29;8867;-80
2021/09/14 10:26:10;;;;;;;;;12.00;12.00;;;;;31.22;36.38;101017.34;4866347;29;8908;-82
2021/09/14 10:29:13;;;;;;;;;12.00;12.00;;;;;31.39;35.07;101029.34;4871142;29;8967;-81
2021/09/14 10:32:11;;;;;;;;;12.20;11.60;;;;;31.32;36.17;101015.34;4858644;29;8865;-82
2021/09/14 10:35:08;;;;;;;;;9.40;9.40;;;;;31.41;35.37;101019.03;4859531;29;8861;-81
2021/09/14 10:38:12;;;;;;;;;11.00;11.00;;;;;31.44;35.35;101015.25;4871297;29;8928;-81
2021/09/14 10:41:14;;;;;;;;;15.40;15.00;;;;;31.43;32.10;101016.50;4861172;29;8877;-79
2021/09/14 10:44:22;;;;;;;;;12.60;12.60;;;;;31.84;32.33;101005.13;4842222;29;8911;-78
2021/09/14 10:47:21;;;;;;;;;12.00;12.00;;;;;31.87;30.82;101007.03;4841819;29;8876;-79
2021/09/14 10:50:32;;;;;;;;;12.80;12.80;;;;;31.91;31.60;101008.50;4852830;29;8888;-79
2021/09/14 10:53:29;;;;;;;;;11.20;11.20;;;;;32.09;31.13;101002.81;4841250;29;8863;-80
2021/09/14 10:56:27;;;;;;;;;12.00;12.00;;;;;32.20;29.95;101007.28;4862497;29;8889;-80
2021/09/14 10:59:22;;;;;;;;;12.20;12.20;;;;;32.41;29.26;101008.47;4841006;29;8907;-80
2021/09/14 11:02:24;;;;;;;;;10.40;10.40;;;;;32.62;29.71;101001.81;4851257;29;8869;-80
2021/09/14 11:05:19;;;;;;;;;11.60;11.60;;;;;32.88;28.40;100999.44;4859153;29;8865;-80
2021/09/14 11:08:15;;;;;;;;;10.80;10.80;;;;;33.05;29.49;100999.91;4860938;29;8950;-80
2021/09/14 11:11:17;;;;;;;;;15.40;13.20;;;;;32.66;31.22;101005.31;4860762;29;8873;-81
2021/09/14 11:14:12;;;;;;;;;10.80;10.80;;;;;32.25;31.64;101000.94;4861428;29;8861;-80
2021/09/14 11:17:08;;;;;;;;;13.40;13.40;;;;;32.60;30.33;100990.06;4859934;29;8889;-79
2021/09/14 11:20:15;;;;;;;;;10.60;10.40;;;;;32.68;28.54;100993.41;4850365;29;8892;-81
2021/09/14 11:23:11;;;;;;;;;9.40;9.40;;;;;32.67;29.43;100991.78;4876404;29;8866;-81
2021/09/14 11:26:12;;;;;;;;;15.60;15.60;;;;;32.99;28.44;100988.31;4853353;29;8883;-79
2021/09/14 11:29:08;;;;;;;;;11.00;10.60;;;;;33.15;28.70;100982.22;4842133;29;8859;-80
2021/09/14 11:32:13;;;;;;;;;11.20;11.20;;;;;33.33;29.18;100992.03;4861054;29;8881;-80
2021/09/14 11:35:10;;;;;;;;;12.80;12.80;;;;;33.06;26.63;100992.91;4855007;29;9603;-80
2021/09/14 11:38:03;;;;;;;;;18.20;17.80;;;;;32.76;26.20;100986.88;4857490;29;8881;-80
2021/09/14 11:41:01;;;;;;;;;13.40;13.40;;;;;33.35;26.30;100978.00;4870263;29;8849;-80
2021/09/14 11:43:33;;;;;;;;;10.20;8.80;;;;;33.58;25.96;100990.88;4869210;29;8965;-80
2021/09/14 11:46:28;;;;;;;;;14.00;14.00;;;;;33.45;26.36;100988.22;4851929;29;8953;-82
2021/09/14 11:49:27;;;;;;;;;10.20;10.20;;;;;33.31;25.78;100981.06;4860912;29;8892;-80
2021/09/14 11:52:23;;;;;;;;;11.20;11.20;;;;;32.99;25.91;100976.84;4860112;29;8865;-82
2021/09/14 11:55:26;;;;;;;;;11.00;11.00;;;;;33.34;26.21;100979.28;4862736;29;8867;-80
2021/09/14 11:58:31;;;;;;;;;10.60;10.60;;;;;32.84;25.42;100973.81;4871818;29;8885;-80
2021/09/14 12:01:09;;;;;;;;;16.80;15.20;;;;;33.39;26.17;100973.75;4860290;29;8879;-81
2021/09/14 12:03:54;;;;;;;;;10.00;10.00;;;;;33.30;24.64;100972.97;4855118;29;8872;-80
2021/09/14 12:06:26;;;;;;;;;12.40;12.40;;;;;33.28;26.75;100970.56;4853809;29;8897;-81
2021/09/14 12:09:23;;;;;;;;;13.40;11.40;;;;;33.41;25.43;100971.19;4851819;29;8876;-82
2021/09/14 12:12:18;;;;;;;;;10.80;10.80;;;;;33.44;26.17;100970.22;4858281;29;8861;-81
2021/09/14 12:15:14;;;;;;;;;11.00;11.00;;;;;33.59;25.82;100969.53;4858569;29;8889;-80
2021/09/14 12:18:04;;;;;;;;;11.80;11.80;;;;;33.02;26.10;100966.47;4873989;29;8887;-80
2021/09/14 12:21:00;;;;;;;;;9.60;9.60;;;;;32.81;26.86;100968.22;4858486;29;8942;-80
2021/09/14 12:23:56;;;;;;;;;12.00;12.00;;;;;32.18;26.41;100962.00;4858413;29;8865;-80
2021/09/14 12:26:37;;;;;;;;;13.40;12.80;;;;;31.87;27.92;100961.28;4855977;29;8869;-79
2021/09/14 12:29:34;;;;;;;;;10.60;10.60;;;;;31.66;27.37;100966.56;4840083;29;8868;-79
2021/09/14 12:32:30;;;;;;;;;12.00;11.40;;;;;31.07;27.77;100962.78;4844943;29;8889;-79
2021/09/14 12:34:57;;;;;;;;;9.60;9.60;;;;;30.97;28.90;100966.81;4868250;29;8882;-78
2021/09/14 12:37:53;;;;;;;;;7.00;7.00;;;;;31.18;28.41;100968.06;4876612;29;8894;-79
2021/09/14 12:45:18;;;;;;;;;16.00;15.00;;;;;32.39;28.21;100960.28;4837664;29;8864;-72
2021/09/14 12:48:11;;;;;;;;;10.40;10.40;;;;;32.20;26.77;100959.44;4858601;29;8921;-71
2021/09/14 12:51:06;;;;;;;;;11.80;11.80;;;;;32.50;26.95;100965.53;4875135;29;8888;-71
2021/09/14 12:54:02;;;;;;;;;12.40;11.80;;;;;32.79;27.26;100965.06;4876516;29;8968;-71
2021/09/14 12:56:58;;;;;;;;;14.80;14.80;;;;;33.11;27.34;100950.06;4884339;29;8881;-71
2021/09/14 12:59:53;;;;;;;;;17.60;16.40;;;;;33.11;26.81;100957.88;4879334;29;8863;-71
2021/09/14 13:02:49;;;;;;;;;13.00;13.00;;;;;33.05;26.07;100956.91;4876248;29;8899;-72
2021/09/14 13:05:17;;;;;;;;;15.00;15.00;;;;;33.39;25.75;100955.75;4881663;29;8884;-71
2021/09/14 13:08:14;;;;;;;;;12.40;12.40;;;;;33.38;26.34;100954.97;4880922;29;9729;-71
2021/09/14 13:11:09;;;;;;;;;13.00;13.00;;;;;33.33;25.20;100955.56;4880003;29;8871;-72
2021/09/14 13:16:51;;;;;;;;;13.00;13.00;;;;;33.28;25.85;100952.56;4900423;29;9026;-72
2021/09/14 13:19:47;;;;;;;;;15.20;15.20;;;;;33.27;27.00;100948.91;4891748;29;8866;-71
2021/09/14 13:22:15;;;;;;;;;14.20;14.20;;;;;33.15;26.21;100947.03;4881015;29;8870;-71
2021/09/14 13:25:11;;;;;;;;;16.40;15.00;;;;;33.06;27.68;100944.22;4881211;29;8885;-72
2021/09/14 13:28:06;;;;;;;;;17.80;17.80;;;;;33.03;27.98;100943.09;4880560;29;8886;-72
2021/09/14 13:31:05;;;;;;;;;22.80;21.00;;;;;33.36;27.12;100945.22;4868894;29;8891;-74
2021/09/14 13:34:00;;;;;;;;;13.60;13.40;;;;;33.04;27.18;100944.66;4881361;29;8871;-71
2021/09/14 13:36:29;;;;;;;;;16.60;16.60;;;;;32.57;27.83;100945.97;4886517;29;8931;-71
2021/09/14 13:39:25;;;;;;;;;16.20;16.20;;;;;32.09;28.09;100937.03;4868422;29;9006;-72
2021/09/14 13:42:25;;;;;;;;;17.00;16.00;;;;;32.01;28.68;100943.53;4883098;29;8871;-72
2021/09/14 13:48:07;;;;;;;;;16.20;16.20;;;;;31.36;30.12;100938.81;4899575;29;8869;-71
2021/09/14 13:51:04;;;;;;;;;15.40;15.40;;;;;31.26;31.13;100938.78;4898693;29;8872;-72
2021/09/14 13:53:42;;;;;;;;;16.80;16.60;;;;;30.93;31.95;100932.69;4899795;29;8956;-71
2021/09/14 13:56:38;;;;;;;;;15.20;15.20;;;;;30.64;32.05;100932.94;4893976;29;8875;-71
2021/09/14 13:59:34;;;;;;;;;14.60;13.40;;;;;30.54;32.59;100934.13;4860868;29;9764;-70
2021/09/14 14:02:30;;;;;;;;;15.00;15.00;;;;;30.18;32.46;100931.75;4868194;29;8896;-72
2021/09/14 14:05:27;;;;;;;;;23.60;23.60;;;;;30.38;33.74;100937.19;4887054;29;8891;-71
2021/09/14 14:08:22;;;;;;;;;20.60;20.60;;;;;30.58;34.53;100925.44;4898390;29;9011;-71
2021/09/14 14:11:18;;;;;;;;;12.80;12.80;;;;;30.61;33.05;100933.88;4899163;29;8869;-72
2021/09/14 14:14:14;;;;;;;;;16.60;16.60;;;;;30.38;34.20;100932.25;4898776;29;8884;-72